Time;durP1;ratioP1;P1;durP2;ratioP2;P2;SDS_P1;SDS_P2;PMS_P1;PMS_P2;Temp;Humidity;BMP_temperature;BMP_pressure;BME280_temperature;BME280_humidity;BME280_pressure;Samples;Min_cycle;Max_cycle;Signal;HPM_P1;HPM_P2
2022/11/12 00:00:29;;;;;;;0.40;0.40;;;;;;;11.21;100.00;101219.91;5004475;28;20041;-77
2022/11/12 00:02:54;;;;;;;0.40;0.40;;;;;;;11.25;100.00;101212.34;5000099;28;20040;-76
2022/11/12 00:05:23;;;;;;;0.30;0.30;;;;;;;11.26;100.00;101211.31;5000308;28;20046;-75
2022/11/12 00:07:52;;;;;;;0.40;0.40;;;;;;;11.30;100.00;101212.69;4983019;28;20060;-78
2022/11/12 00:10:17;;;;;;;0.30;0.30;;;;;;;11.33;100.00;101206.94;5000794;28;20376;-77
2022/11/12 00:12:43;;;;;;;0.40;0.40;;;;;;;11.34;100.00;101222.06;5052076;28;20029;-76
2022/11/12 00:15:10;;;;;;;0.30;0.30;;;;;;;11.36;100.00;101211.16;5003810;28;20498;-77
2022/11/12 00:17:35;;;;;;;0.40;0.40;;;;;;;11.36;100.00;101217.38;5005240;28;20552;-75
2022/11/12 00:20:02;;;;;;;0.30;0.30;;;;;;;11.38;100.00;101217.22;5014057;28;20042;-77
2022/11/12 00:22:27;;;;;;;0.40;0.40;;;;;;;11.40;100.00;101221.38;4997632;28;20065;-77
2022/11/12 00:24:53;;;;;;;0.30;0.30;;;;;;;11.40;100.00;101216.00;5003538;28;22194;-79
2022/11/12 00:27:18;;;;;;;0.30;0.30;;;;;;;11.40;100.00;101210.63;5003676;28;20072;-76
2022/11/12 00:29:44;;;;;;;0.30;0.30;;;;;;;11.50;100.00;101217.69;5024384;28;20040;-80
2022/11/12 00:32:10;;;;;;;0.30;0.30;;;;;;;11.54;100.00;101216.34;4994503;28;20487;-78
2022/11/12 00:34:36;;;;;;;0.30;0.30;;;;;;;11.59;100.00;101214.81;5004626;28;20071;-78
2022/11/12 00:37:02;;;;;;;0.40;0.40;;;;;;;11.62;100.00;101203.69;4993142;28;20765;-78
2022/11/12 00:39:28;;;;;;;0.30;0.30;;;;;;;11.59;100.00;101203.19;4987096;28;20037;-79
2022/11/12 00:41:54;;;;;;;0.32;0.32;;;;;;;11.63;100.00;101202.69;5020834;28;20095;-80
2022/11/12 00:44:20;;;;;;;0.30;0.30;;;;;;;11.58;100.00;101201.50;5023989;28;20494;-79
2022/11/12 00:46:46;;;;;;;0.30;0.30;;;;;;;11.62;100.00;101200.19;4998843;28;20049;-78
2022/11/12 00:49:11;;;;;;;0.30;0.30;;;;;;;11.62;100.00;101202.88;5020049;28;20113;-80
2022/11/12 00:51:37;;;;;;;0.30;0.30;;;;;;;11.67;100.00;101197.81;5027945;28;22278;-79
2022/11/12 00:54:03;;;;;;;0.30;0.30;;;;;;;11.61;100.00;101191.22;4997679;28;20519;-79
2022/11/12 00:56:34;;;;;;;0.30;0.30;;;;;;;11.72;100.00;101206.19;4977302;28;20044;-80
2022/11/12 00:59:05;;;;;;;0.30;0.30;;;;;;;11.68;100.00;101193.25;4993049;28;20065;-79
2022/11/12 01:01:34;;;;;;;0.30;0.30;;;;;;;11.67;100.00;101187.03;5023048;28;20438;-78
2022/11/12 01:04:00;;;;;;;0.30;0.30;;;;;;;11.54;100.00;101175.97;4987643;28;20033;-79
2022/11/12 01:06:25;;;;;;;0.30;0.30;;;;;;;11.58;100.00;101177.28;5024114;28;20064;-80
2022/11/12 01:08:53;;;;;;;0.30;0.30;;;;;;;11.60;100.00;101169.88;5022569;28;20369;-78
2022/11/12 01:11:20;;;;;;;0.30;0.30;;;;;;;11.64;100.00;101187.34;5022035;28;20029;-80
2022/11/12 01:13:47;;;;;;;0.30;0.30;;;;;;;11.60;100.00;101175.25;5004671;28;20037;-80
2022/11/12 01:16:21;;;;;;;0.30;0.30;;;;;;;11.70;100.00;101184.00;5022334;28;20029;-78
2022/11/12 01:18:47;;;;;;;0.30;0.30;;;;;;;11.70;100.00;101181.28;5016547;28;20051;-78
2022/11/12 01:21:13;;;;;;;0.40;0.40;;;;;;;11.54;100.00;101149.84;4988241;28;20037;-79
2022/11/12 01:23:42;;;;;;;0.30;0.30;;;;;;;11.70;100.00;101167.81;4987479;28;20128;-80
2022/11/12 01:26:13;;;;;;;0.30;0.30;;;;;;;11.70;100.00;101170.53;5016981;28;20040;-79
2022/11/12 01:28:42;;;;;;;0.40;0.40;;;;;;;11.70;100.00;101164.28;5003378;28;20071;-78
2022/11/12 01:31:29;;;;;;;0.40;0.40;;;;;;;11.71;100.00;101166.81;5048459;28;20030;-80
2022/11/12 01:33:58;;;;;;;0.30;0.30;;;;;;;11.75;100.00;101162.75;5015156;28;20061;-79
2022/11/12 01:36:25;;;;;;;0.30;0.30;;;;;;;11.76;100.00;101172.50;5006485;28;20098;-80
2022/11/12 01:38:52;;;;;;;0.30;0.30;;;;;;;11.81;100.00;101166.59;5054274;28;20025;-79
2022/11/12 01:41:23;;;;;;;0.30;0.30;;;;;;;11.79;100.00;101157.84;5000591;28;20064;-81
2022/11/12 01:44:07;;;;;;;0.30;0.30;;;;;;;11.94;100.00;101155.31;4982554;28;20025;-78
2022/11/12 01:46:34;;;;;;;0.30;0.30;;;;;;;12.01;100.00;101154.44;5022854;28;20041;-80
2022/11/12 01:49:11;;;;;;;0.30;0.30;;;;;;;12.01;100.00;101135.56;5018580;28;20079;-79
2022/11/12 01:51:41;;;;;;;0.30;0.30;;;;;;;12.11;100.00;101148.81;5018265;28;20048;-79
2022/11/12 01:54:10;;;;;;;0.30;0.30;;;;;;;12.26;100.00;101157.00;4993094;28;20439;-78
2022/11/12 01:56:36;;;;;;;0.30;0.30;;;;;;;12.25;100.00;101140.00;5028170;28;20103;-78
2022/11/12 01:59:04;;;;;;;0.30;0.30;;;;;;;12.44;100.00;101152.19;5005264;28;20475;-79
2022/11/12 02:01:30;;;;;;;136.30;113.40;;;;;;;12.61;100.00;101142.09;4996427;28;20733;-78
2022/11/12 02:03:56;;;;;;;0.30;0.30;;;;;;;12.74;100.00;101136.09;4991162;28;20084;-78
2022/11/12 02:06:22;;;;;;;0.40;0.40;;;;;;;12.85;100.00;101148.34;4983619;28;20041;-79
2022/11/12 02:08:49;;;;;;;0.30;0.30;;;;;;;12.81;100.00;101125.41;5004161;28;20044;-79
2022/11/12 02:11:19;;;;;;;0.40;0.40;;;;;;;13.00;100.00;101145.69;5011025;28;20029;-79
2022/11/12 02:13:59;;;;;;;0.40;0.40;;;;;;;13.02;100.00;101132.81;4995510;28;20037;-80
2022/11/12 02:16:43;;;;;;;0.30;0.30;;;;;;;13.04;100.00;101134.31;5027861;28;20029;-80
2022/11/12 02:19:11;;;;;;;0.50;0.50;;;;;;;13.07;100.00;101136.69;4983651;28;20045;-79
2022/11/12 02:21:37;;;;;;;0.30;0.30;;;;;;;13.06;100.00;101120.66;5008923;28;20483;-80
2022/11/12 02:24:22;;;;;;;0.40;0.40;;;;;;;13.20;100.00;101136.88;5018384;28;20039;-79
2022/11/12 02:26:50;;;;;;;0.30;0.30;;;;;;;13.27;100.00;101144.28;5004446;28;20029;-80
2022/11/12 02:29:16;;;;;;;0.32;0.32;;;;;;;13.29;100.00;101139.53;5017400;28;20069;-79
2022/11/12 02:31:41;;;;;;;0.40;0.40;;;;;;;13.31;100.00;101107.75;5017302;28;20037;-77
2022/11/12 02:34:07;;;;;;;26.20;3.92;;;;;;;13.39;100.00;101126.59;5004103;28;20048;-80
2022/11/12 02:36:33;;;;;;;0.20;0.20;;;;;;;13.51;100.00;101137.78;4999382;28;20116;-78
2022/11/12 02:38:59;;;;;;;1.50;0.68;;;;;;;13.56;100.00;101135.34;5017658;28;20041;-77
2022/11/12 02:41:24;;;;;;;0.30;0.30;;;;;;;13.62;100.00;101138.13;4978566;28;20041;-78
2022/11/12 02:43:50;;;;;;;0.30;0.30;;;;;;;13.66;100.00;101121.56;5000622;28;20064;-79
2022/11/12 02:46:15;;;;;;;0.30;0.30;;;;;;;13.76;100.00;101131.06;5007725;28;20045;-78
2022/11/12 02:48:41;;;;;;;0.40;0.40;;;;;;;13.81;100.00;101127.78;5006411;28;20030;-77
2022/11/12 02:51:07;;;;;;;0.35;0.35;;;;;;;13.83;100.00;101131.16;4988134;28;20431;-79
2022/11/12 02:53:33;;;;;;;0.22;0.22;;;;;;;13.73;100.00;101114.38;4990215;28;20550;-82
2022/11/12 02:55:59;;;;;;;0.30;0.30;;;;;;;13.79;100.00;101124.47;5003974;28;20030;-81
2022/11/12 02:58:25;;;;;;;0.20;0.20;;;;;;;13.80;100.00;101118.84;5020612;28;20040;-78
2022/11/12 03:00:51;;;;;;;0.30;0.30;;;;;;;13.82;100.00;101124.91;5014996;28;20051;-79
2022/11/12 03:03:16;;;;;;;0.73;0.60;;;;;;;13.80;100.00;101110.72;5002679;28;20068;-82
2022/11/12 03:05:43;;;;;;;0.30;0.30;;;;;;;13.85;100.00;101112.88;5025631;28;20121;-78
2022/11/12 03:08:09;;;;;;;0.30;0.30;;;;;;;13.85;100.00;101110.19;5022292;28;20029;-79
2022/11/12 03:10:38;;;;;;;1.00;0.30;;;;;;;13.88;100.00;101106.25;5009628;28;20210;-78
2022/11/12 03:13:05;;;;;;;0.30;0.30;;;;;;;13.92;100.00;101115.66;5018138;28;20042;-81
2022/11/12 03:15:31;;;;;;;0.20;0.20;;;;;;;13.87;100.00;101110.00;5010176;28;20492;-78
2022/11/12 03:17:57;;;;;;;0.55;0.55;;;;;;;13.83;100.00;101099.53;5019109;28;20040;-79
2022/11/12 03:20:24;;;;;;;0.20;0.20;;;;;;;13.87;100.00;101100.03;5017156;28;20036;-79
2022/11/12 03:23:04;;;;;;;0.35;0.35;;;;;;;13.93;100.00;101095.72;4987755;28;20126;-78
2022/11/12 03:25:30;;;;;;;0.30;0.30;;;;;;;13.91;100.00;101093.19;4992454;28;20106;-81
2022/11/12 03:28:06;;;;;;;0.30;0.30;;;;;;;13.88;100.00;101098.97;5006282;28;20496;-80
2022/11/12 03:30:35;;;;;;;0.40;0.40;;;;;;;13.87;100.00;101100.03;5015572;28;20488;-80
2022/11/12 03:33:01;;;;;;;0.43;0.43;;;;;;;13.90;100.00;101102.34;5024722;28;20092;-81
2022/11/12 03:35:27;;;;;;;0.30;0.30;;;;;;;13.88;100.00;101104.38;5018272;28;20034;-79
2022/11/12 03:37:52;;;;;;;0.30;0.30;;;;;;;13.90;100.00;101104.22;5026037;28;20049;-79
2022/11/12 03:40:18;;;;;;;0.40;0.40;;;;;;;13.89;100.00;101108.75;5032124;28;20033;-79
2022/11/12 03:42:50;;;;;;;0.30;0.30;;;;;;;13.92;100.00;101103.00;4986858;28;20033;-80
2022/11/12 03:45:17;;;;;;;0.30;0.30;;;;;;;13.82;100.00;101087.06;4999379;28;20037;-79
2022/11/12 03:47:44;;;;;;;1999.90;999.90;;;;;;;13.81;100.00;101098.91;5016434;28;20399;-78
2022/11/12 03:50:11;;;;;;;1999.90;999.90;;;;;;;13.63;100.00;101076.84;5004607;28;20025;-79
2022/11/12 03:52:37;;;;;;;1999.90;999.90;;;;;;;13.76;100.00;101097.78;4991713;28;20128;-80
2022/11/12 03:55:06;;;;;;;1999.90;999.90;;;;;;;13.81;100.00;101104.31;5003588;28;20037;-79
2022/11/12 03:57:33;;;;;;;1999.90;999.90;;;;;;;13.82;100.00;101097.03;5002321;28;20033;-79
2022/11/12 04:00:01;;;;;;;1999.90;999.90;;;;;;;13.86;100.00;101114.53;5024011;28;20037;-80
2022/11/12 04:02:28;;;;;;;1999.90;999.90;;;;;;;13.80;100.00;101093.69;5021791;28;20041;-78
2022/11/12 04:10:22;;;;;;;1999.90;999.90;;;;;;;13.83;100.00;101101.41;5055250;28;20040;-80
2022/11/12 04:15:32;;;;;;;1999.90;999.90;;;;;;;13.74;100.00;101116.06;5041175;28;20064;-79
2022/11/12 04:21:49;;;;;;;1999.90;999.90;;;;;;;13.70;100.00;101112.06;5007320;28;20131;-78
2022/11/12 04:23:30;;;;;;;472.63;168.93;;;;;;;13.68;100.00;101095.19;5046984;28;20055;-79
2022/11/12 04:30:14;;;;;;;1999.90;999.90;;;;;;;13.53;100.00;101087.09;5016831;28;20071;-78
2022/11/12 04:31:25;;;;;;;1999.90;999.90;;;;;;;13.63;100.00;101112.81;5010048;28;20033;-77
2022/11/12 04:33:51;;;;;;;1999.90;999.90;;;;;;;13.54;100.00;101092.31;4987043;28;20430;-78
2022/11/12 04:36:17;;;;;;;1999.90;999.90;;;;;;;13.62;100.00;101113.00;5009450;28;20037;-79
2022/11/12 04:38:43;;;;;;;28.48;19.73;;;;;;;13.61;100.00;101114.84;4988266;28;20034;-77
2022/11/12 04:46:41;;;;;;;1999.90;999.90;;;;;;;13.63;100.00;101098.47;5023093;28;20184;-78
2022/11/12 04:49:07;;;;;;;1231.38;253.15;;;;;;;13.53;100.00;101087.94;5008065;28;20485;-78
2022/11/12 04:54:22;;;;;;;629.38;211.25;;;;;;;13.53;100.00;101079.00;5023120;28;20095;-78
2022/11/12 04:56:48;;;;;;;0.22;0.22;;;;;;;13.64;100.00;101106.38;4992877;28;20475;-79
2022/11/12 04:59:13;;;;;;;0.20;0.20;;;;;;;13.45;100.00;101074.53;5009632;28;20281;-78
2022/11/12 05:01:39;;;;;;;0.30;0.30;;;;;;;13.48;100.00;101076.84;5004338;28;20372;-78
2022/11/12 05:04:05;;;;;;;0.20;0.20;;;;;;;13.54;100.00;101099.56;4993069;28;20589;-77
2022/11/12 05:07:12;;;;;;;0.28;0.28;;;;;;;13.50;100.00;101082.91;5009916;28;20025;-80
2022/11/12 05:09:21;;;;;;;0.30;0.30;;;;;;;13.56;100.00;101081.31;5022748;28;20053;-78
2022/11/12 05:11:47;;;;;;;0.30;0.30;;;;;;;13.55;100.00;101088.59;4988434;28;20053;-79
2022/11/12 05:14:13;;;;;;;0.25;0.25;;;;;;;13.48;100.00;101082.25;5004582;28;20041;-77
2022/11/12 05:16:38;;;;;;;0.30;0.30;;;;;;;13.48;100.00;101082.25;5005005;28;20037;-78
2022/11/12 05:19:04;;;;;;;0.30;0.30;;;;;;;13.43;100.00;101076.56;5021930;28;20038;-77
2022/11/12 05:24:14;;;;;;;0.20;0.20;;;;;;;13.39;100.00;101078.00;5014843;28;20483;-79
2022/11/12 05:26:40;;;;;;;0.30;0.30;;;;;;;13.33;100.00;101071.44;5026415;28;20040;-78
2022/11/12 05:29:05;;;;;;;0.30;0.30;;;;;;;13.42;100.00;101080.31;5020841;28;20033;-78
2022/11/12 05:31:31;;;;;;;0.30;0.30;;;;;;;13.43;100.00;101087.38;5017300;28;20475;-78
2022/11/12 05:33:57;;;;;;;0.38;0.38;;;;;;;13.36;100.00;101075.63;5017006;28;20049;-80
2022/11/12 05:36:23;;;;;;;0.40;0.40;;;;;;;13.33;100.00;101076.00;5015312;28;20029;-78
2022/11/12 05:38:49;;;;;;;0.30;0.30;;;;;;;13.37;100.00;101088.97;5000672;28;20638;-80
2022/11/12 05:41:14;;;;;;;0.40;0.40;;;;;;;13.38;100.00;101087.09;4989406;28;20037;-78
2022/11/12 05:43:40;;;;;;;0.30;0.30;;;;;;;13.40;100.00;101088.59;4987676;28;20025;-78
2022/11/12 05:46:06;;;;;;;1.42;1.40;;;;;;;13.14;100.00;101034.16;5021097;28;20399;-78
2022/11/12 05:48:31;;;;;;;0.40;0.40;;;;;;;13.41;100.00;101082.16;5014854;28;20467;-79
2022/11/12 05:50:57;;;;;;;0.50;0.50;;;;;;;13.19;100.00;101048.78;4999988;28;20042;-80
2022/11/12 05:53:23;;;;;;;0.30;0.30;;;;;;;13.20;100.00;101060.41;5003176;28;20490;-80
2022/11/12 05:55:48;;;;;;;0.60;0.60;;;;;;;13.28;100.00;101068.47;4994475;28;20475;-78
2022/11/12 05:58:14;;;;;;;0.30;0.30;;;;;;;13.25;100.00;101068.81;4987033;28;20557;-77
2022/11/12 06:00:42;;;;;;;0.57;0.57;;;;;;;13.17;100.00;101068.91;4992711;28;20033;-78
2022/11/12 06:03:08;;;;;;;0.30;0.30;;;;;;;13.19;100.00;101078.50;5000864;28;20042;-81
2022/11/12 06:05:34;;;;;;;0.95;0.57;;;;;;;13.08;100.00;101061.91;5022669;28;20048;-78
2022/11/12 06:08:00;;;;;;;0.38;0.38;;;;;;;13.04;100.00;101066.00;5017892;28;20500;-77
2022/11/12 06:10:26;;;;;;;1.08;1.08;;;;;;;12.95;100.00;101054.47;5010663;28;20128;-77
2022/11/12 06:12:52;;;;;;;0.43;0.43;;;;;;;13.11;100.00;101073.19;4990046;28;20037;-79
2022/11/12 06:15:18;;;;;;;0.52;0.52;;;;;;;13.11;100.00;101059.69;4988938;28;20099;-81
2022/11/12 06:17:44;;;;;;;0.65;0.55;;;;;;;13.19;100.00;101064.16;4988371;28;20051;-81
2022/11/12 06:20:10;;;;;;;1.95;1.23;;;;;;;13.21;100.00;101064.81;5025815;28;20065;-78
2022/11/12 06:22:36;;;;;;;0.57;0.57;;;;;;;13.13;100.00;101049.53;5004818;28;20045;-81
2022/11/12 06:25:03;;;;;;;0.47;0.47;;;;;;;13.14;100.00;101064.69;4991334;28;20395;-78
2022/11/12 06:27:28;;;;;;;0.63;0.63;;;;;;;13.12;100.00;101074.84;5000770;28;20085;-81
2022/11/12 06:29:54;;;;;;;2.55;0.55;;;;;;;12.98;100.00;101072.97;4984877;28;20038;-78
2022/11/12 06:32:20;;;;;;;4.13;0.95;;;;;;;12.93;100.00;101070.00;5002335;28;20529;-78
2022/11/12 06:34:45;;;;;;;3.03;1.30;;;;;;;12.90;100.00;101064.97;5005985;28;20442;-79
2022/11/12 06:37:11;;;;;;;3.75;0.93;;;;;;;12.89;100.00;101069.53;4984214;28;20030;-83
2022/11/12 06:39:39;;;;;;;2.28;0.88;;;;;;;12.88;100.00;101061.59;5019964;28;20475;-80
2022/11/12 06:42:05;;;;;;;3.72;1.20;;;;;;;12.89;100.00;101069.53;5026266;28;20213;-79
2022/11/12 06:44:30;;;;;;;1.40;1.00;;;;;;;12.77;100.00;101038.59;5007915;28;20057;-78
2022/11/12 06:46:56;;;;;;;3.03;1.40;;;;;;;12.84;100.00;101044.13;5026690;28;20067;-80
2022/11/12 06:49:22;;;;;;;3.40;0.88;;;;;;;12.89;100.00;101049.81;5008197;28;20040;-78
2022/11/12 06:51:49;;;;;;;3.50;1.23;;;;;;;12.87;100.00;101051.84;5024911;28;20037;-80
2022/11/12 06:54:15;;;;;;;1.35;0.95;;;;;;;12.86;100.00;101051.00;5024465;28;20045;-79
2022/11/12 06:56:43;;;;;;;0.80;0.70;;;;;;;12.84;100.00;101039.56;5029233;28;20033;-78
2022/11/12 06:59:09;;;;;;;2.15;1.08;;;;;;;12.81;100.00;101049.84;4992889;28;20037;-79
2022/11/12 07:01:35;;;;;;;3.92;1.25;;;;;;;12.75;100.00;101059.53;5023603;28;20063;-79
2022/11/12 07:04:00;;;;;;;6.22;1.65;;;;;;;12.70;100.00;101053.84;4994297;28;20091;-80
2022/11/12 07:06:26;;;;;;;4.20;1.30;;;;;;;12.75;100.00;101062.22;5023209;28;20065;-81
2022/11/12 07:08:52;;;;;;;4.13;1.65;;;;;;;12.77;100.00;101061.03;5005787;28;20523;-76
2022/11/12 07:11:19;;;;;;;2.15;1.20;;;;;;;12.81;100.00;101057.94;5019923;28;20115;-79
2022/11/12 07:13:45;;;;;;;2.83;1.17;;;;;;;12.84;100.00;101052.22;5026516;28;20315;-77
2022/11/12 07:16:18;;;;;;;4.80;2.13;;;;;;;12.81;100.00;101052.56;5028609;28;20037;-77
2022/11/12 07:18:45;;;;;;;3.78;2.15;;;;;;;12.77;100.00;101050.22;5021429;28;20032;-76
2022/11/12 07:21:13;;;;;;;3.28;1.20;;;;;;;12.79;100.00;101054.63;4992503;28;20026;-77
2022/11/12 07:23:38;;;;;;;2.38;0.98;;;;;;;12.81;100.00;101058.81;5024441;28;20028;-78
2022/11/12 07:26:16;;;;;;;5.15;2.35;;;;;;;12.82;100.00;101057.78;4987607;28;20038;-79
2022/11/12 07:28:43;;;;;;;5.50;2.20;;;;;;;12.88;100.00;101057.03;5030603;28;20025;-77
2022/11/12 07:31:11;;;;;;;5.13;1.50;;;;;;;12.72;100.00;101041.84;5006999;28;20084;-79
2022/11/12 07:33:36;;;;;;;7.20;1.95;;;;;;;12.84;100.00;101036.03;5031784;28;20037;-78
2022/11/12 07:36:05;;;;;;;5.93;1.92;;;;;;;12.94;100.00;101055.50;5024943;28;20039;-80
2022/11/12 07:38:34;;;;;;;3.55;1.60;;;;;;;13.00;100.00;101068.25;5009360;28;20033;-80
2022/11/12 07:41:04;;;;;;;6.05;2.58;;;;;;;13.12;100.00;101069.44;5019235;28;20033;-80
2022/11/12 07:43:31;;;;;;;5.28;1.65;;;;;;;13.09;100.00;101069.81;5019336;28;20033;-77
2022/11/12 07:46:01;;;;;;;2.10;1.48;;;;;;;13.22;100.00;101074.59;5020776;28;20111;-77
2022/11/12 07:48:28;;;;;;;7.50;2.22;;;;;;;13.16;100.00;101056.44;5039352;28;20056;-77
2022/11/12 07:51:06;;;;;;;6.90;2.40;;;;;;;13.09;100.00;101064.41;4997352;28;20103;-77
2022/11/12 07:53:32;;;;;;;4.35;1.67;;;;;;;13.02;100.00;101062.63;4995102;28;20046;-79
2022/11/12 07:56:00;;;;;;;7.38;3.90;;;;;;;12.94;100.00;101066.28;4993752;28;20044;-76
2022/11/12 07:58:26;;;;;;;9.80;3.15;;;;;;;12.92;100.00;101073.72;4994004;28;20152;-79
2022/11/12 08:00:52;;;;;;;12.80;3.83;;;;;;;12.90;100.00;101064.97;4996495;28;20511;-77
2022/11/12 08:03:21;;;;;;;8.35;3.20;;;;;;;12.97;100.00;101063.22;5026523;28;20116;-78
2022/11/12 08:05:47;;;;;;;8.65;2.35;;;;;;;12.94;100.00;101058.19;5013601;28;20434;-76
2022/11/12 08:08:13;;;;;;;5.68;3.88;;;;;;;12.96;100.00;101051.56;5024828;28;20133;-77
2022/11/12 08:10:38;;;;;;;10.48;3.15;;;;;;;13.05;100.00;101065.00;5027137;28;20115;-77
2022/11/12 08:13:05;;;;;;;5.20;2.60;;;;;;;13.07;100.00;101069.19;5030513;28;20135;-76
2022/11/12 08:15:31;;;;;;;7.22;2.40;;;;;;;13.01;100.00;101052.88;4992954;28;20049;-79
2022/11/12 08:17:57;;;;;;;3.63;1.70;;;;;;;13.09;100.00;101064.41;4990286;28;20051;-78
2022/11/12 08:20:23;;;;;;;4.78;2.45;;;;;;;13.19;100.00;101070.38;5006790;28;20061;-77
2022/11/12 08:22:49;;;;;;;8.63;2.35;;;;;;;13.22;100.00;101079.16;5026623;28;20147;-76
2022/11/12 08:25:15;;;;;;;5.88;2.85;;;;;;;13.25;100.00;101081.47;5012457;28;20155;-77
2022/11/12 08:27:41;;;;;;;2.83;2.03;;;;;;;13.29;100.00;101085.53;5020912;28;20253;-76
2022/11/12 08:30:07;;;;;;;11.43;2.63;;;;;;;13.23;100.00;101076.28;4992556;28;20045;-78
2022/11/12 08:32:32;;;;;;;4.63;1.98;;;;;;;13.19;100.00;101081.19;5008507;28;20049;-78
2022/11/12 08:34:59;;;;;;;11.18;4.68;;;;;;;13.19;100.00;101070.38;5027312;28;20392;-76
2022/11/12 08:37:25;;;;;;;5.47;1.92;;;;;;;13.31;100.00;101088.84;5032201;28;20052;-76
2022/11/12 08:39:50;;;;;;;7.38;2.42;;;;;;;13.42;100.00;101091.13;5027546;28;20459;-79
2022/11/12 08:42:16;;;;;;;4.50;2.45;;;;;;;13.67;100.00;101096.22;5005770;28;20424;-77
2022/11/12 08:44:42;;;;;;;12.45;3.28;;;;;;;13.73;100.00;101079.25;5000070;28;20045;-77
2022/11/12 08:47:07;;;;;;;10.45;3.15;;;;;;;13.62;100.00;101058.94;5015482;28;20032;-76
2022/11/12 08:49:33;;;;;;;7.65;3.00;;;;;;;13.97;100.00;101103.28;5008658;28;20272;-76
2022/11/12 08:51:58;;;;;;;8.23;3.72;;;;;;;14.15;100.00;101099.28;5025337;28;20611;-76
2022/11/12 08:54:24;;;;;;;7.63;2.85;;;;;;;14.43;100.00;101112.91;5010839;28;20025;-77
2022/11/12 08:56:50;;;;;;;10.52;3.38;;;;;;;14.67;100.00;101117.13;5024529;28;20151;-79
2022/11/12 08:59:16;;;;;;;11.27;2.85;;;;;;;14.86;100.00;101118.34;5013611;28;20037;-77
2022/11/12 09:01:41;;;;;;;4.97;2.60;;;;;;;14.93;100.00;101127.38;4989227;28;20494;-76
2022/11/12 09:04:07;;;;;;;7.93;2.70;;;;;;;14.94;100.00;101129.03;4995239;28;20514;-76
2022/11/12 09:06:33;;;;;;;7.22;2.45;;;;;;;14.84;100.00;101123.94;5025226;28;20041;-77
2022/11/12 09:09:01;;;;;;;9.63;3.25;;;;;;;14.43;100.00;101081.28;5005306;28;20088;-79
2022/11/12 09:11:26;;;;;;;10.82;3.05;;;;;;;14.54;100.00;101117.00;4992495;28;20152;-78
2022/11/12 09:13:53;;;;;;;13.70;6.15;;;;;;;14.49;100.00;101136.50;4984794;28;20120;-75
2022/11/12 09:16:20;;;;;;;7.18;2.15;;;;;;;14.36;100.00;101126.38;5006651;28;20036;-78
2022/11/12 09:18:46;;;;;;;9.27;2.60;;;;;;;14.33;100.00;101128.63;5007807;28;20044;-77
2022/11/12 09:21:12;;;;;;;9.15;3.05;;;;;;;14.31;100.00;101128.81;5012851;28;20088;-76
2022/11/12 09:23:38;;;;;;;11.00;4.00;;;;;;;14.26;100.00;101115.00;5029228;28;20459;-76
2022/11/12 09:26:04;;;;;;;5.60;2.13;;;;;;;14.39;100.00;101122.44;5005452;28;20076;-76
2022/11/12 09:28:30;;;;;;;5.78;2.05;;;;;;;14.47;100.00;101128.59;5013843;28;20056;-76
2022/11/12 09:30:56;;;;;;;8.02;2.92;;;;;;;14.48;100.00;101134.81;5026790;28;20460;-78
2022/11/12 09:33:28;;;;;;;10.50;3.08;;;;;;;14.54;100.00;101139.50;5009808;28;20082;-76
2022/11/12 09:35:55;;;;;;;7.53;2.67;;;;;;;14.56;100.00;101136.59;4993736;28;20115;-76
2022/11/12 09:38:21;;;;;;;11.02;3.13;;;;;;;14.65;100.00;101138.13;5009168;28;20365;-75
2022/11/12 09:40:49;;;;;;;7.85;2.17;;;;;;;14.60;100.00;101125.19;5004910;28;20061;-76
2022/11/12 09:43:29;;;;;;;10.73;1.85;;;;;;;14.60;100.00;101111.66;5007741;28;20033;-87
2022/11/12 09:46:02;;;;;;;7.55;2.38;;;;;;;14.73;100.00;101110.94;4996613;28;20045;-87
2022/11/12 09:48:36;;;;;;;6.18;2.70;;;;;;;14.65;100.00;101103.78;4995634;28;20041;-89
2022/11/12 09:51:06;;;;;;;9.75;2.83;;;;;;;14.71;100.00;101118.41;5006833;28;20100;-88
2022/11/12 09:53:41;;;;;;;9.98;3.70;;;;;;;14.78;100.00;101122.03;4997191;28;20033;-88
2022/11/12 09:56:10;;;;;;;12.70;3.72;;;;;;;14.70;100.00;101116.75;5028466;28;20091;-89
2022/11/12 09:58:36;;;;;;;7.78;3.15;;;;;;;14.60;100.00;101106.25;5028763;28;20041;-89
2022/11/12 10:01:11;;;;;;;8.30;3.00;;;;;;;14.79;100.00;101128.28;5013357;28;20108;-88
2022/11/12 10:03:56;;;;;;;9.18;2.97;;;;;;;14.86;100.00;101111.06;5003040;28;20060;-89
2022/11/12 10:06:23;;;;;;;7.25;3.10;;;;;;;14.75;100.00;101087.22;5029937;28;20037;-89
2022/11/12 10:08:52;;;;;;;7.05;2.60;;;;;;;14.93;100.00;101105.72;5010954;28;20040;-88
2022/11/12 10:14:30;;;;;;;6.20;2.40;;;;;;;15.18;100.00;101093.38;5014646;28;20038;-89
2022/11/12 10:17:16;;;;;;;7.82;2.83;;;;;;;15.27;100.00;101099.50;5010831;28;20037;-88
2022/11/12 10:20:09;;;;;;;9.88;2.80;;;;;;;15.39;100.00;101100.59;5009605;28;20399;-89
2022/11/12 10:22:57;;;;;;;11.60;4.50;;;;;;;15.51;100.00;101097.34;5012469;28;20148;-88
2022/11/12 10:25:24;;;;;;;7.38;2.55;;;;;;;15.47;100.00;101082.53;5012024;28;20030;-88
2022/11/12 10:27:54;;;;;;;8.25;2.95;;;;;;;15.45;100.00;101090.00;4994754;28;20049;-88
2022/11/12 10:30:22;;;;;;;8.55;5.38;;;;;;;15.39;100.00;101070.78;4996417;28;20100;-89
2022/11/12 10:32:49;;;;;;;7.72;2.60;;;;;;;15.30;100.00;101061.16;5029417;28;20052;-88
2022/11/12 10:35:17;;;;;;;6.18;2.65;;;;;;;15.33;100.00;101051.81;5028722;28;20037;-89
2022/11/12 10:38:04;;;;;;;6.80;2.78;;;;;;;15.40;100.00;101060.81;5027875;28;20393;-88
2022/11/12 10:40:36;;;;;;;13.27;3.08;;;;;;;15.42;100.00;101077.69;4997810;28;20120;-88
2022/11/12 10:43:04;;;;;;;9.63;3.35;;;;;;;15.46;100.00;101087.09;4996963;28;20045;-88
2022/11/12 10:45:30;;;;;;;5.68;2.53;;;;;;;15.45;100.00;101049.34;5019751;28;20300;-88
2022/11/12 10:47:56;;;;;;;9.05;3.08;;;;;;;15.45;100.00;101071.88;4995156;28;20041;-80
2022/11/12 10:50:35;;;;;;;9.57;3.33;;;;;;;15.56;100.00;101089.47;5007103;28;20072;-80
2022/11/12 10:53:04;;;;;;;8.02;2.95;;;;;;;15.51;100.00;101070.25;5006832;28;20411;-79
2022/11/12 10:55:38;;;;;;;7.38;2.58;;;;;;;15.35;100.00;101082.25;4992177;28;20064;-80
2022/11/12 10:58:09;;;;;;;11.82;3.33;;;;;;;15.45;100.00;101090.84;4996920;28;20048;-79
2022/11/12 11:00:59;;;;;;;15.10;6.40;;;;;;;15.50;100.00;101082.13;5024988;28;20057;-79
2022/11/12 11:03:34;;;;;;;14.77;8.25;;;;;;;15.53;100.00;101079.84;5019981;28;20037;-80
2022/11/12 11:06:05;;;;;;;17.67;9.32;;;;;;;15.59;100.00;101075.50;4989998;28;20515;-80
2022/11/12 11:08:39;;;;;;;17.67;7.05;;;;;;;15.65;100.00;101079.28;5012745;28;20144;-79
2022/11/12 11:11:29;;;;;;;10.57;4.95;;;;;;;15.58;100.00;101065.69;5001626;28;20026;-79
2022/11/12 11:13:57;;;;;;;9.07;4.95;;;;;;;15.66;100.00;101089.06;5054936;28;20120;-79
2022/11/12 11:16:26;;;;;;;15.82;4.55;;;;;;;15.65;100.00;101079.28;4988995;28;20033;-81
2022/11/12 11:19:03;;;;;;;13.73;8.63;;;;;;;15.64;100.00;101074.88;5002864;28;20033;-80
2022/11/12 11:21:37;;;;;;;11.23;3.67;;;;;;;15.53;100.00;101079.00;5018066;28;20110;-78
2022/11/12 11:24:45;;;;;;;10.38;4.18;;;;;;;15.35;100.00;101083.09;5004855;28;20111;-80
2022/11/12 11:27:30;;;;;;;9.95;5.00;;;;;;;15.36;100.00;101083.91;5005448;28;20033;-79
2022/11/12 11:30:28;;;;;;;12.05;4.13;;;;;;;15.28;100.00;101076.78;5022176;28;20030;-79
2022/11/12 11:33:25;;;;;;;8.88;3.10;;;;;;;15.30;100.00;101084.72;4986100;28;20041;-79
2022/11/12 11:36:17;;;;;;;17.67;5.53;;;;;;;15.36;100.00;101079.34;5021617;28;20076;-79
2022/11/12 11:38:51;;;;;;;21.30;14.63;;;;;;;15.39;100.00;101076.22;5025750;28;20107;-79
2022/11/12 11:42:12;;;;;;;321.00;90.68;;;;;;;15.38;100.00;101071.00;5044188;28;20116;-79
2022/11/12 11:44:45;;;;;;;1999.90;999.90;;;;;;;15.34;100.00;101075.16;5028975;28;20048;-79
2022/11/12 11:47:42;;;;;;;1999.90;999.90;;;;;;;15.35;100.00;101071.41;5027112;28;20116;-79